Time,TemperatureF,DewpointF,PressureIn,WindDirection,WindDirectionDegrees,WindSpeedMPH,WindSpeedGustMPH,Humidity,HourlyPrecipIn,Conditions,Clouds,dailyrainin,SoftwareType,DateUTC
2013-03-26 00:00:00,33.6,32.1,29.99,NNW,342,2.0,9.0,94,0.00,,BKN055,0.00,VWS V14.00,2013-03-26 04:00:00,
2013-03-26 00:10:00,33.6,32.1,29.99,WNW,286,0.0,8.0,94,0.00,,BKN055,0.00,VWS V14.00,2013-03-26 04:10:00,
2013-03-26 00:20:00,33.6,31.8,29.99,WNW,289,2.0,9.0,93,0.00,,BKN055,0.00,VWS V14.00,2013-03-26 04:20:00,
2013-03-26 00:30:00,33.6,31.8,29.99,West,275,0.0,5.0,93,0.00,,BKN055,0.00,VWS V14.00,2013-03-26 04:30:00,
2013-03-26 00:40:00,33.6,31.8,29.99,WSW,256,0.0,5.0,93,0.00,,BKN055,0.00,VWS V14.00,2013-03-26 04:40:00,
2013-03-26 00:50:00,33.6,31.8,30.00,WSW,257,0.0,3.0,93,0.00,,BKN055,0.00,VWS V14.00,2013-03-26 04:50:00,
2013-03-26 01:00:00,33.5,31.7,30.00,West,260,0.0,0.0,93,0.00,,BKN055,0.00,VWS V14.00,2013-03-26 05:00:00,
2013-03-26 01:10:00,33.5,31.7,30.00,West,273,0.0,7.0,93,0.00,,BKN055,0.00,VWS V14.00,2013-03-26 05:10:00,
2013-03-26 01:20:00,33.5,32.0,30.00,West,275,2.0,5.0,94,0.00,,BKN055,0.00,VWS V14.00,2013-03-26 05:20:00,
2013-03-26 01:30:00,33.5,32.0,30.00,WNW,290,3.0,4.0,94,0.00,,BKN055,0.00,VWS V14.00,2013-03-26 05:30:00,
2013-03-26 01:40:00,33.5,32.0,30.00,WSW,254,1.0,4.0,94,0.00,,BKN055,0.00,VWS V14.00,2013-03-26 05:40:00,
2013-03-26 01:50:00,33.6,32.1,30.00,WNW,297,2.0,8.0,94,0.00,,BKN055,0.00,VWS V14.00,2013-03-26 05:50:00,
2013-03-26 02:00:00,33.6,32.1,30.00,West,280,2.0,6.0,94,0.00,,BKN055,0.00,VWS V14.00,2013-03-26 06:00:00,
2013-03-26 02:10:00,33.7,31.9,30.00,NW,310,4.0,8.0,93,0.00,,BKN055,0.00,VWS V14.00,2013-03-26 06:10:00,
2013-03-26 02:20:00,33.7,31.9,30.00,West,269,3.0,6.0,93,0.00,,BKN055,0.00,VWS V14.00,2013-03-26 06:20:00,
2013-03-26 02:30:00,33.7,31.9,30.01,WNW,292,2.0,7.0,93,0.00,,BKN055,0.00,VWS V14.00,2013-03-26 06:30:00,
2013-03-26 02:40:00,33.7,31.9,30.01,West,281,2.0,5.0,93,0.00,,BKN055,0.00,VWS V14.00,2013-03-26 06:40:00,
2013-03-26 02:50:00,33.7,31.9,30.01,WNW,292,2.0,9.0,93,0.00,,BKN055,0.00,VWS V14.00,2013-03-26 06:50:00,
2013-03-26 03:00:00,33.7,31.9,30.01,NW,306,2.0,6.0,93,0.00,,BKN055,0.00,VWS V14.00,2013-03-26 07:00:00,
2013-03-26 03:10:00,33.7,31.9,30.01,West,262,4.0,5.0,93,0.00,,BKN055,0.00,VWS V14.00,2013-03-26 07:10:00,
2013-03-26 03:20:00,33.6,31.8,30.01,NW,307,5.0,9.0,93,0.00,,BKN055,0.00,VWS V14.00,2013-03-26 07:20:00,
2013-03-26 03:30:00,33.6,31.8,30.01,WNW,296,2.0,7.0,93,0.00,,BKN055,0.00,VWS V14.00,2013-03-26 07:30:00,
2013-03-26 03:40:00,33.6,31.8,30.01,NW,317,2.0,10.0,93,0.00,,BKN055,0.00,VWS V14.00,2013-03-26 07:40:00,
2013-03-26 03:50:00,33.6,31.8,30.01,WNW,291,2.0,7.0,93,0.00,,BKN055,0.00,VWS V14.00,2013-03-26 07:50:00,
2013-03-26 04:00:00,33.6,31.8,30.02,WNW,282,5.0,9.0,93,0.00,,BKN055,0.00,VWS V14.00,2013-03-26 08:00:00,
2013-03-26 04:10:00,33.6,31.8,30.02,NW,311,4.0,11.0,93,0.00,,BKN055,0.00,VWS V14.00,2013-03-26 08:10:00,
2013-03-26 04:20:00,33.5,31.7,30.02,WNW,292,5.0,8.0,93,0.00,,BKN055,0.00,VWS V14.00,2013-03-26 08:20:00,
2013-03-26 04:30:00,33.5,31.7,30.02,WNW,300,2.0,8.0,93,0.00,,BKN055,0.00,VWS V14.00,2013-03-26 08:30:00,
2013-03-26 04:40:00,33.4,31.6,30.02,West,261,5.0,5.0,93,0.00,,BKN055,0.00,VWS V14.00,2013-03-26 08:40:00,
2013-03-26 04:50:00,33.4,31.6,30.02,WNW,290,1.0,8.0,93,0.00,,BKN055,0.00,VWS V14.00,2013-03-26 08:50:00,
2013-03-26 05:00:00,33.4,31.6,30.02,NW,314,5.0,10.0,93,0.00,,BKN055,0.00,VWS V14.00,2013-03-26 09:00:00,
2013-03-26 05:10:00,33.4,31.3,30.03,WNW,290,3.0,7.0,92,0.00,,BKN055,0.00,VWS V14.00,2013-03-26 09:10:00,
2013-03-26 05:20:00,33.4,31.3,30.03,WNW,292,2.0,7.0,92,0.00,,BKN055,0.00,VWS V14.00,2013-03-26 09:20:00,
2013-03-26 05:30:00,33.4,31.3,30.03,West,280,2.0,9.0,92,0.00,,BKN055,0.00,VWS V14.00,2013-03-26 09:30:00,
2013-03-26 05:40:00,33.4,31.3,30.04,WNW,289,3.0,9.0,92,0.00,,BKN055,0.00,VWS V14.00,2013-03-26 09:40:00,
2013-03-26 05:50:00,33.3,31.2,30.04,West,279,4.0,9.0,92,0.00,,BKN055,0.00,VWS V14.00,2013-03-26 09:50:00,
2013-03-26 06:00:00,33.3,31.2,30.04,WNW,295,1.0,9.0,92,0.00,,BKN055,0.00,VWS V14.00,2013-03-26 10:00:00,
2013-03-26 06:10:00,33.3,31.2,30.04,West,277,5.0,10.0,92,0.00,,BKN055,0.00,VWS V14.00,2013-03-26 10:10:00,
2013-03-26 06:20:00,33.2,31.1,30.05,WNW,300,3.0,7.0,92,0.00,,BKN055,0.00,VWS V14.00,2013-03-26 10:20:00,
2013-03-26 06:30:00,33.2,31.1,30.05,NW,311,2.0,10.0,92,0.00,,BKN055,0.00,VWS V14.00,2013-03-26 10:30:00,
2013-03-26 06:40:00,33.1,31.0,30.05,West,276,2.0,9.0,92,0.00,,BKN055,0.00,VWS V14.00,2013-03-26 10:40:00,
2013-03-26 06:50:00,33.0,30.9,30.06,NW,309,4.0,7.0,92,0.00,,BKN055,0.00,VWS V14.00,2013-03-26 10:50:00,
2013-03-26 07:00:00,32.9,30.8,30.06,WNW,302,3.0,9.0,92,0.00,,BKN055,0.00,VWS V14.00,2013-03-26 11:00:00,
2013-03-26 07:10:00,32.8,31.0,30.06,NW,308,3.0,10.0,93,0.00,,BKN055,0.00,VWS V14.00,2013-03-26 11:10:00,
2013-03-26 07:20:00,32.7,30.9,30.07,WNW,299,2.0,11.0,93,0.00,,BKN055,0.00,VWS V14.00,2013-03-26 11:20:00,
2013-03-26 07:30:00,32.6,30.8,30.07,NNW,327,5.0,6.0,93,0.00,,BKN055,0.00,VWS V14.00,2013-03-26 11:30:00,
2013-03-26 07:40:00,32.6,30.8,30.08,WNW,297,5.0,9.0,93,0.00,,BKN055,0.00,VWS V14.00,2013-03-26 11:40:00,
2013-03-26 07:50:00,32.6,30.8,30.08,NW,310,2.0,10.0,93,0.00,,BKN055,0.00,VWS V14.00,2013-03-26 11:50:00,
2013-03-26 08:00:00,32.7,30.9,30.08,WNW,296,3.0,6.0,93,0.00,,BKN055,0.00,VWS V14.00,2013-03-26 12:00:00,
2013-03-26 08:10:00,32.8,30.7,30.09,WNW,288,4.0,11.0,92,0.00,,BKN055,0.00,VWS V14.00,2013-03-26 12:10:00,
2013-03-26 08:20:00,32.9,30.8,30.09,NW,318,6.0,11.0,92,0.00,,BKN055,0.00,VWS V14.00,2013-03-26 12:20:00,
2013-03-26 08:30:00,33.0,30.7,30.10,West,275,2.0,9.0,91,0.00,,BKN055,0.00,VWS V14.00,2013-03-26 12:30:00,
2013-03-26 08:40:00,33.1,31.0,30.10,NNW,330,1.0,8.0,92,0.00,,BKN055,0.00,VWS V14.00,2013-03-26 12:40:00,
2013-03-26 08:50:00,33.1,30.8,30.11,NW,319,6.0,10.0,91,0.00,,BKN055,0.00,VWS V14.00,2013-03-26 12:50:00,
2013-03-26 09:00:00,33.1,30.8,30.11,NNW,331,3.0,6.0,91,0.00,,BKN055,0.00,VWS V14.00,2013-03-26 13:00:00,
2013-03-26 09:10:00,33.2,30.9,30.11,NNW,338,4.0,10.0,91,0.00,,BKN055,0.00,VWS V14.00,2013-03-26 13:10:00,
2013-03-26 09:20:00,33.2,30.9,30.12,NW,310,3.0,9.0,91,0.00,,BKN055,0.00,VWS V14.00,2013-03-26 13:20:00,
2013-03-26 09:30:00,33.3,31.0,30.12,NW,313,0.0,10.0,91,0.01,,BKN055,0.01,VWS V14.00,2013-03-26 13:30:00,
2013-03-26 09:40:00,33.4,30.8,30.13,NW,306,1.0,10.0,90,0.01,,BKN055,0.01,VWS V14.00,2013-03-26 13:40:00,
2013-03-26 09:50:00,33.6,31.0,30.13,NNW,344,5.0,11.0,90,0.01,,BKN055,0.01,VWS V14.00,2013-03-26 13:50:00,
2013-03-26 10:00:00,33.8,31.5,30.13,NNW,328,11.0,12.0,91,0.01,,BKN055,0.01,VWS V14.00,2013-03-26 14:00:00,
2013-03-26 10:10:00,34.2,31.6,30.13,NW,315,10.0,12.0,90,0.01,,BKN055,0.01,VWS V14.00,2013-03-26 14:10:00,
2013-03-26 10:20:00,34.1,31.2,30.13,NW,307,2.0,10.0,89,0.01,,BKN055,0.01,VWS V14.00,2013-03-26 14:20:00,
2013-03-26 10:30:00,34.4,31.8,30.14,West,264,9.0,11.0,90,0.01,,BKN055,0.01,VWS V14.00,2013-03-26 14:30:00,
2013-03-26 10:40:00,34.4,31.5,30.14,North,349,6.0,9.0,89,0.00,,BKN055,0.01,VWS V14.00,2013-03-26 14:40:00,
2013-03-26 10:50:00,34.5,31.9,30.15,NW,315,4.0,10.0,90,0.00,,BKN055,0.01,VWS V14.00,2013-03-26 14:50:00,
2013-03-26 11:00:00,34.7,31.8,30.15,West,271,3.0,10.0,89,0.00,,BKN055,0.01,VWS V14.00,2013-03-26 15:00:00,
2013-03-26 11:10:00,35.1,31.9,30.15,NW,318,2.0,8.0,88,0.00,,BKN055,0.01,VWS V14.00,2013-03-26 15:10:00,
2013-03-26 11:20:00,35.2,32.0,30.15,NW,319,4.0,8.0,88,0.00,,BKN055,0.01,VWS V14.00,2013-03-26 15:20:00,
2013-03-26 11:30:00,35.5,32.0,30.16,NW,310,1.0,7.0,87,0.00,,BKN055,0.01,VWS V14.00,2013-03-26 15:30:00,
2013-03-26 11:40:00,36.0,32.5,30.16,WNW,286,2.0,11.0,87,0.00,,BKN055,0.01,VWS V14.00,2013-03-26 15:40:00,
2013-03-26 11:50:00,36.4,32.6,30.16,NNW,344,5.0,10.0,86,0.00,,BKN055,0.01,VWS V14.00,2013-03-26 15:50:00,
2013-03-26 12:00:00,36.5,32.4,30.16,West,268,8.0,14.0,85,0.00,,BKN055,0.01,VWS V14.00,2013-03-26 16:00:00,
2013-03-26 12:10:00,36.5,32.7,30.17,WSW,250,4.0,13.0,86,0.00,,BKN055,0.01,VWS V14.00,2013-03-26 16:10:00,
2013-03-26 12:20:00,36.6,32.5,30.17,NW,310,5.0,10.0,85,0.00,,BKN055,0.01,VWS V14.00,2013-03-26 16:20:00,
2013-03-26 12:30:00,36.7,32.6,30.17,NW,317,1.0,9.0,85,0.00,,BKN055,0.01,VWS V14.00,2013-03-26 16:30:00,
2013-03-26 12:40:00,37.6,33.5,30.17,NNW,347,4.0,7.0,85,0.00,,BKN055,0.01,VWS V14.00,2013-03-26 16:40:00,
2013-03-26 12:50:00,38.3,33.9,30.16,North,349,5.0,9.0,84,0.00,,BKN055,0.01,VWS V14.00,2013-03-26 16:50:00,
2013-03-26 13:00:00,38.6,33.9,30.17,West,261,8.0,12.0,83,0.00,,BKN055,0.01,VWS V14.00,2013-03-26 17:00:00,
2013-03-26 13:10:00,39.2,34.5,30.16,West,280,4.0,13.0,83,0.00,,BKN055,0.01,VWS V14.00,2013-03-26 17:10:00,
2013-03-26 13:20:00,39.3,34.0,30.16,NW,313,5.0,17.0,81,0.00,,BKN055,0.01,VWS V14.00,2013-03-26 17:20:00,
2013-03-26 13:30:00,39.9,33.9,30.16,WNW,283,4.0,14.0,79,0.00,,BKN055,0.01,VWS V14.00,2013-03-26 17:30:00,
2013-03-26 13:40:00,40.6,34.0,30.17,WNW,298,9.0,14.0,77,0.00,,BKN055,0.01,VWS V14.00,2013-03-26 17:40:00,
2013-03-26 13:50:00,40.2,34.2,30.17,WNW,300,2.0,14.0,79,0.00,,BKN055,0.01,VWS V14.00,2013-03-26 17:50:00,
2013-03-26 14:00:00,40.6,33.3,30.17,NNW,338,10.0,14.0,75,0.00,,BKN055,0.01,VWS V14.00,2013-03-26 18:00:00,
2013-03-26 14:10:00,40.7,33.1,30.17,West,281,7.0,15.0,74,0.00,,BKN055,0.01,VWS V14.00,2013-03-26 18:10:00,
2013-03-26 14:20:00,41.0,32.7,30.17,NW,325,7.0,14.0,72,0.00,,BKN055,0.01,VWS V14.00,2013-03-26 18:20:00,
2013-03-26 14:30:00,40.8,32.8,30.17,West,269,5.0,16.0,73,0.00,,BKN055,0.01,VWS V14.00,2013-03-26 18:30:00,
2013-03-26 14:40:00,40.4,32.4,30.17,NNW,333,5.0,12.0,73,0.00,,BKN055,0.01,VWS V14.00,2013-03-26 18:40:00,
2013-03-26 14:50:00,40.0,31.7,30.17,NW,306,7.0,13.0,72,0.00,,BKN055,0.01,VWS V14.00,2013-03-26 18:50:00,
2013-03-26 15:00:00,39.8,31.9,30.17,WSW,254,2.0,10.0,73,0.00,,BKN055,0.01,VWS V14.00,2013-03-26 19:00:00,
2013-03-26 15:10:00,39.7,32.1,30.17,NW,307,0.0,11.0,74,0.00,,BKN055,0.01,VWS V14.00,2013-03-26 19:10:00,
2013-03-26 15:20:00,40.3,31.7,30.17,NW,312,2.0,11.0,71,0.00,,BKN055,0.01,VWS V14.00,2013-03-26 19:20:00,
2013-03-26 15:30:00,42.0,33.3,30.16,NW,321,9.0,13.0,71,0.00,,BKN055,0.01,VWS V14.00,2013-03-26 19:30:00,
2013-03-26 15:40:00,42.1,32.3,30.16,NNW,333,6.0,16.0,68,0.00,,BKN055,0.01,VWS V14.00,2013-03-26 19:40:00,
2013-03-26 15:50:00,41.3,30.4,30.17,WSW,256,3.0,16.0,65,0.00,,BKN055,0.01,VWS V14.00,2013-03-26 19:50:00,
2013-03-26 16:00:00,40.7,30.6,30.17,West,281,7.0,15.0,67,0.00,,BKN055,0.01,VWS V14.00,2013-03-26 20:00:00,
2013-03-26 16:10:00,40.4,31.0,30.17,West,265,9.0,11.0,69,0.00,,BKN055,0.01,VWS V14.00,2013-03-26 20:10:00,
2013-03-26 16:20:00,40.1,31.5,30.17,West,267,9.0,17.0,71,0.00,,BKN055,0.01,VWS V14.00,2013-03-26 20:20:00,
2013-03-26 16:30:00,39.9,29.5,30.17,WNW,291,5.0,13.0,66,0.00,,BKN055,0.01,VWS V14.00,2013-03-26 20:30:00,
2013-03-26 16:40:00,40.0,29.6,30.17,WNW,302,14.0,16.0,66,0.00,,BKN055,0.01,VWS V14.00,2013-03-26 20:40:00,
2013-03-26 16:50:00,40.4,30.0,30.17,WSW,244,3.0,14.0,66,0.00,,BKN055,0.01,VWS V14.00,2013-03-26 20:50:00,
2013-03-26 17:00:00,41.0,30.1,30.17,SW,229,3.0,8.0,65,0.00,,BKN055,0.01,VWS V14.00,2013-03-26 21:00:00,
2013-03-26 17:10:00,41.1,29.9,30.18,West,273,3.0,11.0,64,0.00,,BKN055,0.01,VWS V14.00,2013-03-26 21:10:00,
2013-03-26 17:20:00,40.9,30.1,30.18,WNW,287,5.0,12.0,65,0.00,,BKN055,0.01,VWS V14.00,2013-03-26 21:20:00,
2013-03-26 17:30:00,40.8,28.4,30.18,WNW,295,6.0,11.0,61,0.00,,BKN055,0.01,VWS V14.00,2013-03-26 21:30:00,
2013-03-26 17:40:00,40.9,28.9,30.18,West,273,7.0,14.0,62,0.00,,BKN055,0.01,VWS V14.00,2013-03-26 21:40:00,
2013-03-26 17:50:00,40.7,28.7,30.18,West,271,5.0,15.0,62,0.00,,BKN055,0.01,VWS V14.00,2013-03-26 21:50:00,
2013-03-26 18:00:00,40.5,27.7,30.18,West,276,4.0,15.0,60,0.00,,BKN055,0.01,VWS V14.00,2013-03-26 22:00:00,
2013-03-26 18:10:00,40.6,27.8,30.19,West,267,4.0,11.0,60,0.00,,BKN055,0.01,VWS V14.00,2013-03-26 22:10:00,
2013-03-26 18:20:00,40.6,27.8,30.18,WSW,239,10.0,10.0,60,0.00,,BKN055,0.01,VWS V14.00,2013-03-26 22:20:00,
2013-03-26 18:30:00,40.2,27.0,30.19,WNW,290,9.0,15.0,59,0.00,,BKN055,0.01,VWS V14.00,2013-03-26 22:30:00,
2013-03-26 18:40:00,40.2,27.4,30.20,WNW,288,6.0,12.0,60,0.00,,BKN055,0.01,VWS V14.00,2013-03-26 22:40:00,
2013-03-26 18:50:00,40.0,28.4,30.20,WSW,246,6.0,11.0,63,0.00,,BKN055,0.01,VWS V14.00,2013-03-26 22:50:00,
2013-03-26 19:00:00,39.9,28.7,30.20,WNW,287,5.0,10.0,64,0.00,,BKN055,0.01,VWS V14.00,2013-03-26 23:00:00,
2013-03-26 19:10:00,39.7,28.1,30.20,North,349,3.0,13.0,63,0.00,,BKN055,0.01,VWS V14.00,2013-03-26 23:10:00,
2013-03-26 19:20:00,39.4,27.5,30.21,NW,319,5.0,10.0,62,0.00,,BKN055,0.01,VWS V14.00,2013-03-26 23:20:00,
2013-03-26 19:30:00,39.2,27.3,30.21,NW,326,4.0,10.0,62,0.00,,BKN055,0.01,VWS V14.00,2013-03-26 23:30:00,
2013-03-26 19:40:00,39.1,27.2,30.21,West,272,4.0,12.0,62,0.00,,BKN055,0.01,VWS V14.00,2013-03-26 23:40:00,
2013-03-26 19:50:00,39.1,27.2,30.22,WNW,284,8.0,11.0,62,0.00,,BKN055,0.01,VWS V14.00,2013-03-26 23:50:00,
2013-03-26 20:00:00,38.9,27.0,30.22,West,271,5.0,10.0,62,0.00,,BKN055,0.01,VWS V14.00,2013-03-27 00:00:00,
2013-03-26 20:10:00,38.7,26.8,30.22,West,268,1.0,9.0,62,0.00,,BKN055,0.01,VWS V14.00,2013-03-27 00:10:00,
2013-03-26 20:20:00,38.4,26.5,30.22,WNW,303,6.0,6.0,62,0.00,,BKN055,0.01,VWS V14.00,2013-03-27 00:20:00,
2013-03-26 20:30:00,38.1,26.2,30.22,West,277,2.0,6.0,62,0.00,,BKN055,0.01,VWS V14.00,2013-03-27 00:30:00,
2013-03-26 20:40:00,37.9,26.5,30.23,WNW,291,4.0,10.0,63,0.00,,BKN055,0.01,VWS V14.00,2013-03-27 00:40:00,
2013-03-26 20:50:00,37.9,26.8,30.23,WNW,286,4.0,9.0,64,0.00,,BKN055,0.01,VWS V14.00,2013-03-27 00:50:00,
2013-03-26 21:00:00,38.0,26.9,30.24,WSW,241,4.0,7.0,64,0.00,,BKN055,0.01,VWS V14.00,2013-03-27 01:00:00,
2013-03-26 21:10:00,37.8,27.1,30.24,WNW,297,2.0,6.0,65,0.00,,BKN055,0.01,VWS V14.00,2013-03-27 01:10:00,
2013-03-26 21:20:00,37.6,27.3,30.25,WSW,252,10.0,10.0,66,0.00,,BKN055,0.01,VWS V14.00,2013-03-27 01:20:00,
2013-03-26 21:30:00,37.6,27.6,30.25,WSW,257,5.0,13.0,67,0.00,,BKN055,0.01,VWS V14.00,2013-03-27 01:30:00,
2013-03-26 21:40:00,37.5,27.9,30.25,WNW,302,0.0,6.0,68,0.00,,BKN055,0.01,VWS V14.00,2013-03-27 01:40:00,
2013-03-26 21:50:00,37.3,28.1,30.25,West,259,0.0,5.0,69,0.00,,BKN055,0.01,VWS V14.00,2013-03-27 01:50:00,
2013-03-26 22:00:00,37.2,28.0,30.26,WNW,292,2.0,4.0,69,0.00,,BKN055,0.01,VWS V14.00,2013-03-27 02:00:00,
2013-03-26 22:10:00,36.9,28.0,30.26,WSW,257,2.0,5.0,70,0.00,,BKN055,0.01,VWS V14.00,2013-03-27 02:10:00,
2013-03-26 22:20:00,37.0,27.8,30.27,West,270,0.0,6.0,69,0.00,,BKN055,0.01,VWS V14.00,2013-03-27 02:20:00,
2013-03-26 22:30:00,36.9,28.0,30.27,WSW,254,1.0,5.0,70,0.00,,BKN055,0.01,VWS V14.00,2013-03-27 02:30:00,
2013-03-26 22:40:00,36.8,28.3,30.27,WSW,256,0.0,6.0,71,0.00,,BKN055,0.01,VWS V14.00,2013-03-27 02:40:00,
2013-03-26 22:50:00,36.6,28.1,30.27,WSW,254,2.0,5.0,71,0.00,,BKN055,0.01,VWS V14.00,2013-03-27 02:50:00,
2013-03-26 23:00:00,36.6,28.1,30.27,SW,236,2.0,5.0,71,0.00,,BKN055,0.01,VWS V14.00,2013-03-27 03:00:00,
2013-03-26 23:10:00,36.5,28.0,30.27,WSW,250,0.0,3.0,71,0.00,,BKN055,0.01,VWS V14.00,2013-03-27 03:10:00,
2013-03-26 23:20:00,36.4,28.2,30.27,WSW,248,1.0,3.0,72,0.00,,BKN055,0.01,VWS V14.00,2013-03-27 03:20:00,
2013-03-26 23:30:00,36.3,28.5,30.27,WSW,251,1.0,3.0,73,0.00,,BKN055,0.01,VWS V14.00,2013-03-27 03:30:00,
2013-03-26 23:40:00,36.3,28.1,30.27,WSW,250,1.0,3.0,72,0.00,,BKN055,0.01,VWS V14.00,2013-03-27 03:40:00,
2013-03-26 23:50:00,36.2,28.7,30.27,WSW,251,1.0,3.0,74,0.00,,BKN055,0.01,VWS V14.00,2013-03-27 03:50:00,